RPLC/CRK METAR and TAF weather

Enter ICAO airport designator
Station Type Date Time Source
RPLC METAR 2020/12/06 01:00 UTC NOAA

RPLC 060100Z 36004KT 9999 FEW020 BKN300 28/22 Q1012 NOSIG RMK A2988


Station Type Date Time Source
RPLC Decoded METAR 2020/12/06 01:00 UTC NOAA

Clarkfield Pampanga International Airport, Philippines (RPLC) 15-11N 120-33E
Dec 05, 2020 - 08:00 PM EST / 2020.12.06 0100 UTC
Wind: from the N (360 degrees) at 5 MPH (4 KT):0
Visibility: greater than 7 mile(s):0
Sky conditions: mostly cloudy
Temperature: 82 F (28 C)
Dew Point: 71 F (22 C)
Relative Humidity: 69%
Pressure (altimeter): 29.88 in. Hg (1012 hPa)
ob: RPLC 060100Z 36004KT 9999 FEW020 BKN300 28/22 Q1012 NOSIG RMK A2988
cycle: 1

Station Type Date Time Source
RPLC TAF 2020/12/05 18:59 UTC NOAA

TAF RPLC 051700Z 0518/0624 03006KT 9999 FEW020 BKN300 TX32/0606Z TN25/0522Z
TEMPO 0518/0524 35006KT SCT020 BKN100

Example: see airport list